sensor_id;sensor_type;location;lat;lon;timestamp;pressure;altitude;pressure_sealevel;temperature;humidity
72157;BME280;60035;52.122;5.406;2024-02-21T00:01:49;102312.31;;;9.16;100.00
72157;BME280;60035;52.122;5.406;2024-02-21T00:04:20;102314.88;;;9.15;100.00
72157;BME280;60035;52.122;5.406;2024-02-21T00:06:54;102307.19;;;9.13;100.00
72157;BME280;60035;52.122;5.406;2024-02-21T00:09:26;102297.00;;;9.12;100.00
72157;BME280;60035;52.122;5.406;2024-02-21T00:11:58;102288.44;;;9.10;100.00
72157;BME280;60035;52.122;5.406;2024-02-21T00:14:30;102293.56;;;9.08;100.00
72157;BME280;60035;52.122;5.406;2024-02-21T00:17:02;102279.97;;;9.08;100.00
72157;BME280;60035;52.122;5.406;2024-02-21T00:19:33;102277.41;;;9.06;100.00
72157;BME280;60035;52.122;5.406;2024-02-21T00:22:08;102276.53;;;9.04;100.00
72157;BME280;60035;52.122;5.406;2024-02-21T00:24:39;102270.59;;;9.04;100.00
72157;BME280;60035;52.122;5.406;2024-02-21T00:27:11;102285.91;;;9.04;100.00
72157;BME280;60035;52.122;5.406;2024-02-21T00:29:42;102279.09;;;9.03;100.00
72157;BME280;60035;52.122;5.406;2024-02-21T00:32:14;102283.38;;;9.04;100.00
72157;BME280;60035;52.122;5.406;2024-02-21T00:34:45;102273.13;;;9.05;100.00
72157;BME280;60035;52.122;5.406;2024-02-21T00:37:19;102273.97;;;9.04;100.00
72157;BME280;60035;52.122;5.406;2024-02-21T00:39:50;102273.97;;;9.06;100.00
72157;BME280;60035;52.122;5.406;2024-02-21T00:42:22;102269.75;;;9.06;100.00
72157;BME280;60035;52.122;5.406;2024-02-21T00:44:53;102269.72;;;9.05;100.00
72157;BME280;60035;52.122;5.406;2024-02-21T00:47:24;102268.88;;;9.06;100.00
72157;BME280;60035;52.122;5.406;2024-02-21T00:49:58;102270.59;;;9.04;100.00
72157;BME280;60035;52.122;5.406;2024-02-21T00:52:33;102273.13;;;9.02;100.00
72157;BME280;60035;52.122;5.406;2024-02-21T00:55:06;102268.88;;;9.03;100.00
72157;BME280;60035;52.122;5.406;2024-02-21T00:57:38;102271.44;;;9.03;100.00
72157;BME280;60035;52.122;5.406;2024-02-21T01:00:10;102274.00;;;9.03;100.00
72157;BME280;60035;52.122;5.406;2024-02-21T01:02:42;102287.59;;;9.03;100.00
72157;BME280;60035;52.122;5.406;2024-02-21T01:05:15;102298.69;;;9.05;100.00
72157;BME280;60035;52.122;5.406;2024-02-21T01:07:49;102293.59;;;9.05;100.00
72157;BME280;60035;52.122;5.406;2024-02-21T01:10:21;102289.31;;;9.06;100.00
72157;BME280;60035;52.122;5.406;2024-02-21T01:12:52;102290.19;;;9.06;100.00
72157;BME280;60035;52.122;5.406;2024-02-21T01:15:24;102285.06;;;9.06;100.00
72157;BME280;60035;52.122;5.406;2024-02-21T01:17:55;102274.81;;;9.05;100.00
72157;BME280;60035;52.122;5.406;2024-02-21T01:20:27;102279.09;;;9.06;100.00
72157;BME280;60035;52.122;5.406;2024-02-21T01:23:01;102280.81;;;9.05;100.00
72157;BME280;60035;52.122;5.406;2024-02-21T01:25:32;102279.97;;;9.06;100.00
72157;BME280;60035;52.122;5.406;2024-02-21T01:28:04;102279.09;;;9.06;100.00
72157;BME280;60035;52.122;5.406;2024-02-21T01:30:35;102275.69;;;9.05;100.00
72157;BME280;60035;52.122;5.406;2024-02-21T01:33:07;102268.88;;;9.04;100.00
72157;BME280;60035;52.122;5.406;2024-02-21T01:35:38;102261.22;;;9.04;100.00
72157;BME280;60035;52.122;5.406;2024-02-21T01:38:13;102253.53;;;9.04;100.00
72157;BME280;60035;52.122;5.406;2024-02-21T01:40:44;102251.00;;;9.04;100.00
72157;BME280;60035;52.122;5.406;2024-02-21T01:43:17;102253.53;;;9.04;100.00
72157;BME280;60035;52.122;5.406;2024-02-21T01:45:52;102252.69;;;9.05;100.00
72157;BME280;60035;52.122;5.406;2024-02-21T01:48:24;102245.88;;;9.04;100.00
72157;BME280;60035;52.122;5.406;2024-02-21T01:50:57;102236.50;;;9.05;100.00
72157;BME280;60035;52.122;5.406;2024-02-21T01:53:35;102225.44;;;9.06;100.00
72157;BME280;60035;52.122;5.406;2024-02-21T01:56:08;102225.44;;;9.04;100.00
72157;BME280;60035;52.122;5.406;2024-02-21T01:58:42;102227.16;;;9.05;100.00
72157;BME280;60035;52.122;5.406;2024-02-21T02:01:14;102235.66;;;9.04;100.00
72157;BME280;60035;52.122;5.406;2024-02-21T02:03:49;102230.56;;;9.04;100.00
72157;BME280;60035;52.122;5.406;2024-02-21T02:06:21;102222.88;;;9.03;100.00
72157;BME280;60035;52.122;5.406;2024-02-21T02:08:55;102219.47;;;9.02;100.00
72157;BME280;60035;52.122;5.406;2024-02-21T02:11:27;102216.91;;;9.02;100.00
72157;BME280;60035;52.122;5.406;2024-02-21T02:13:58;102216.06;;;9.02;100.00
72157;BME280;60035;52.122;5.406;2024-02-21T02:16:30;102209.25;;;9.00;100.00
72157;BME280;60035;52.122;5.406;2024-02-21T02:19:02;102210.13;;;9.01;100.00
72157;BME280;60035;52.122;5.406;2024-02-21T02:21:39;102199.91;;;9.01;100.00
72157;BME280;60035;52.122;5.406;2024-02-21T02:24:16;102197.34;;;9.01;100.00
72157;BME280;60035;52.122;5.406;2024-02-21T02:26:48;102187.97;;;9.00;100.00
72157;BME280;60035;52.122;5.406;2024-02-21T02:29:19;102186.25;;;9.00;100.00
72157;BME280;60035;52.122;5.406;2024-02-21T02:31:51;102193.09;;;9.00;100.00
72157;BME280;60035;52.122;5.406;2024-02-21T02:34:22;102192.25;;;9.01;100.00
72157;BME280;60035;52.122;5.406;2024-02-21T02:36:54;102191.38;;;9.00;100.00
72157;BME280;60035;52.122;5.406;2024-02-21T02:39:28;102187.09;;;8.99;100.00
72157;BME280;60035;52.122;5.406;2024-02-21T02:41:59;102182.84;;;9.02;100.00
72157;BME280;60035;52.122;5.406;2024-02-21T02:44:30;102180.31;;;9.00;100.00
72157;BME280;60035;52.122;5.406;2024-02-21T02:47:02;102181.16;;;9.00;100.00
72157;BME280;60035;52.122;5.406;2024-02-21T02:49:34;102178.59;;;9.00;100.00
72157;BME280;60035;52.122;5.406;2024-02-21T02:52:05;102184.56;;;9.01;100.00
72157;BME280;60035;52.122;5.406;2024-02-21T02:54:39;102179.44;;;8.99;100.00
72157;BME280;60035;52.122;5.406;2024-02-21T02:57:10;102174.34;;;8.99;100.00
72157;BME280;60035;52.122;5.406;2024-02-21T02:59:42;102174.34;;;9.01;100.00
72157;BME280;60035;52.122;5.406;2024-02-21T03:02:13;102163.28;;;8.97;100.00
72157;BME280;60035;52.122;5.406;2024-02-21T03:04:44;102160.72;;;8.97;100.00
72157;BME280;60035;52.122;5.406;2024-02-21T03:07:16;102159.00;;;8.96;100.00
72157;BME280;60035;52.122;5.406;2024-02-21T03:09:50;102153.06;;;8.96;100.00
72157;BME280;60035;52.122;5.406;2024-02-21T03:12:22;102150.53;;;8.94;100.00
72157;BME280;60035;52.122;5.406;2024-02-21T03:14:55;102151.38;;;8.93;100.00
72157;BME280;60035;52.122;5.406;2024-02-21T03:17:26;102141.16;;;8.93;100.00
72157;BME280;60035;52.122;5.406;2024-02-21T03:19:58;102152.22;;;8.94;100.00
72157;BME280;60035;52.122;5.406;2024-02-21T03:22:33;102137.72;;;8.93;100.00
72157;BME280;60035;52.122;5.406;2024-02-21T03:25:08;102138.59;;;8.92;100.00
72157;BME280;60035;52.122;5.406;2024-02-21T03:27:41;102133.50;;;8.92;100.00
72157;BME280;60035;52.122;5.406;2024-02-21T03:30:13;102132.63;;;8.91;100.00
72157;BME280;60035;52.122;5.406;2024-02-21T03:32:44;102124.13;;;8.91;100.00
72157;BME280;60035;52.122;5.406;2024-02-21T03:35:16;102110.47;;;8.90;100.00
72157;BME280;60035;52.122;5.406;2024-02-21T03:37:47;102112.19;;;8.91;100.00
72157;BME280;60035;52.122;5.406;2024-02-21T03:40:21;102108.81;;;8.89;100.00
72157;BME280;60035;52.122;5.406;2024-02-21T03:42:54;102097.72;;;8.89;100.00
72157;BME280;60035;52.122;5.406;2024-02-21T03:45:25;102101.16;;;8.89;100.00
72157;BME280;60035;52.122;5.406;2024-02-21T03:47:57;102100.28;;;8.89;100.00
72157;BME280;60035;52.122;5.406;2024-02-21T03:50:28;102093.44;;;8.88;100.00
72157;BME280;60035;52.122;5.406;2024-02-21T03:53:00;102097.72;;;8.87;100.00
72157;BME280;60035;52.122;5.406;2024-02-21T03:55:34;102096.03;;;8.86;100.00
72157;BME280;60035;52.122;5.406;2024-02-21T03:58:05;102102.00;;;8.85;100.00
72157;BME280;60035;52.122;5.406;2024-02-21T04:00:37;102096.91;;;8.85;100.00
72157;BME280;60035;52.122;5.406;2024-02-21T04:03:09;102099.44;;;8.83;100.00
72157;BME280;60035;52.122;5.406;2024-02-21T04:05:40;102097.75;;;8.82;100.00
72157;BME280;60035;52.122;5.406;2024-02-21T04:08:12;102103.69;;;8.83;100.00
72157;BME280;60035;52.122;5.406;2024-02-21T04:10:46;102102.84;;;8.81;100.00
72157;BME280;60035;52.122;5.406;2024-02-21T04:13:18;102104.56;;;8.80;100.00
72157;BME280;60035;52.122;5.406;2024-02-21T04:15:50;102102.84;;;8.79;100.00
72157;BME280;60035;52.122;5.406;2024-02-21T04:18:21;102084.13;;;8.79;100.00
72157;BME280;60035;52.122;5.406;2024-02-21T04:20:53;102072.19;;;8.79;100.00
72157;BME280;60035;52.122;5.406;2024-02-21T04:23:24;102075.59;;;8.78;100.00
72157;BME280;60035;52.122;5.406;2024-02-21T04:25:58;102071.38;;;8.77;100.00
72157;BME280;60035;52.122;5.406;2024-02-21T04:28:30;102075.59;;;8.77;100.00
72157;BME280;60035;52.122;5.406;2024-02-21T04:31:01;102076.47;;;8.77;100.00
72157;BME280;60035;52.122;5.406;2024-02-21T04:33:32;102074.78;;;8.76;100.00
72157;BME280;60035;52.122;5.406;2024-02-21T04:36:04;102067.09;;;8.76;100.00
72157;BME280;60035;52.122;5.406;2024-02-21T04:38:35;102073.91;;;8.74;100.00
72157;BME280;60035;52.122;5.406;2024-02-21T04:41:11;102069.66;;;8.75;100.00
72157;BME280;60035;52.122;5.406;2024-02-21T04:43:42;102067.13;;;8.75;100.00
72157;BME280;60035;52.122;5.406;2024-02-21T04:46:14;102062.84;;;8.75;100.00
72157;BME280;60035;52.122;5.406;2024-02-21T04:48:45;102052.63;;;8.74;100.00
72157;BME280;60035;52.122;5.406;2024-02-21T04:51:17;102048.38;;;8.73;100.00
72157;BME280;60035;52.122;5.406;2024-02-21T04:53:48;102045.81;;;8.73;100.00
72157;BME280;60035;52.122;5.406;2024-02-21T04:56:22;102047.53;;;8.72;100.00
72157;BME280;60035;52.122;5.406;2024-02-21T04:58:53;102045.81;;;8.74;100.00
72157;BME280;60035;52.122;5.406;2024-02-21T05:01:25;102049.25;;;8.75;100.00
72157;BME280;60035;52.122;5.406;2024-02-21T05:03:57;102042.41;;;8.75;100.00
72157;BME280;60035;52.122;5.406;2024-02-21T05:06:28;102038.19;;;8.76;100.00
72157;BME280;60035;52.122;5.406;2024-02-21T05:08:59;102036.47;;;8.76;100.00
72157;BME280;60035;52.122;5.406;2024-02-21T05:11:34;102030.50;;;8.76;100.00
72157;BME280;60035;52.122;5.406;2024-02-21T05:14:05;102045.84;;;8.76;100.00
72157;BME280;60035;52.122;5.406;2024-02-21T05:16:38;102039.00;;;8.76;100.00
72157;BME280;60035;52.122;5.406;2024-02-21T05:19:10;102031.34;;;8.78;100.00
72157;BME280;60035;52.122;5.406;2024-02-21T05:21:41;102027.06;;;8.78;100.00
72157;BME280;60035;52.122;5.406;2024-02-21T05:24:13;102021.13;;;8.76;100.00
72157;BME280;60035;52.122;5.406;2024-02-21T05:26:47;102024.53;;;8.75;100.00
72157;BME280;60035;52.122;5.406;2024-02-21T05:29:18;102016.88;;;8.75;100.00
72157;BME280;60035;52.122;5.406;2024-02-21T05:31:56;102006.66;;;8.74;100.00
72157;BME280;60035;52.122;5.406;2024-02-21T05:34:28;102008.38;;;8.73;100.00
72157;BME280;60035;52.122;5.406;2024-02-21T05:37:00;101999.03;;;8.72;100.00
72157;BME280;60035;52.122;5.406;2024-02-21T05:39:31;101988.81;;;8.71;100.00
72157;BME280;60035;52.122;5.406;2024-02-21T05:42:05;101983.72;;;8.71;100.00
72157;BME280;60035;52.122;5.406;2024-02-21T05:44:37;101984.53;;;8.71;100.00
72157;BME280;60035;52.122;5.406;2024-02-21T05:47:08;101982.00;;;8.71;100.00
72157;BME280;60035;52.122;5.406;2024-02-21T05:49:43;101973.50;;;8.71;100.00
72157;BME280;60035;52.122;5.406;2024-02-21T05:52:15;101964.97;;;8.70;100.00
72157;BME280;60035;52.122;5.406;2024-02-21T05:54:46;101958.16;;;8.69;100.00
72157;BME280;60035;52.122;5.406;2024-02-21T05:57:20;101959.03;;;8.70;100.00
72157;BME280;60035;52.122;5.406;2024-02-21T05:59:51;101959.03;;;8.70;100.00
72157;BME280;60035;52.122;5.406;2024-02-21T06:02:23;101961.59;;;8.68;100.00
72157;BME280;60035;52.122;5.406;2024-02-21T06:04:54;101954.75;;;8.69;100.00
72157;BME280;60035;52.122;5.406;2024-02-21T06:07:26;101958.16;;;8.69;100.00
72157;BME280;60035;52.122;5.406;2024-02-21T06:09:57;101957.31;;;8.69;100.00
72157;BME280;60035;52.122;5.406;2024-02-21T06:12:32;101955.59;;;8.69;100.00
72157;BME280;60035;52.122;5.406;2024-02-21T06:15:03;101950.50;;;8.67;100.00
72157;BME280;60035;52.122;5.406;2024-02-21T06:17:35;101946.28;;;8.68;100.00
72157;BME280;60035;52.122;5.406;2024-02-21T06:20:08;101944.56;;;8.69;100.00
72157;BME280;60035;52.122;5.406;2024-02-21T06:22:40;101946.25;;;8.66;100.00
72157;BME280;60035;52.122;5.406;2024-02-21T06:25:11;101947.13;;;8.65;100.00
72157;BME280;60035;52.122;5.406;2024-02-21T06:27:45;101953.06;;;8.67;100.00
72157;BME280;60035;52.122;5.406;2024-02-21T06:30:16;101954.78;;;8.67;100.00
72157;BME280;60035;52.122;5.406;2024-02-21T06:32:48;101957.34;;;8.65;100.00
72157;BME280;60035;52.122;5.406;2024-02-21T06:35:19;101953.94;;;8.62;100.00
72157;BME280;60035;52.122;5.406;2024-02-21T06:37:52;101955.63;;;8.60;100.00
72157;BME280;60035;52.122;5.406;2024-02-21T06:40:24;101953.09;;;8.58;100.00
72157;BME280;60035;52.122;5.406;2024-02-21T06:42:58;101954.81;;;8.56;100.00
72157;BME280;60035;52.122;5.406;2024-02-21T06:45:29;101965.03;;;8.55;100.00
72157;BME280;60035;52.122;5.406;2024-02-21T06:48:01;101965.03;;;8.55;100.00
72157;BME280;60035;52.122;5.406;2024-02-21T06:50:33;101955.69;;;8.54;100.00
72157;BME280;60035;52.122;5.406;2024-02-21T06:53:04;101951.41;;;8.53;100.00
72157;BME280;60035;52.122;5.406;2024-02-21T06:55:36;101944.59;;;8.53;100.00
72157;BME280;60035;52.122;5.406;2024-02-21T06:58:10;101941.22;;;8.53;100.00
72157;BME280;60035;52.122;5.406;2024-02-21T07:00:43;101939.50;;;8.52;100.00
72157;BME280;60035;52.122;5.406;2024-02-21T07:03:15;101941.22;;;8.53;100.00
72157;BME280;60035;52.122;5.406;2024-02-21T07:05:46;101932.69;;;8.50;100.00
72157;BME280;60035;52.122;5.406;2024-02-21T07:08:18;101936.97;;;8.50;100.00
72157;BME280;60035;52.122;5.406;2024-02-21T07:10:49;101931.88;;;8.48;100.00
72157;BME280;60035;52.122;5.406;2024-02-21T07:13:23;101931.00;;;8.48;100.00
72157;BME280;60035;52.122;5.406;2024-02-21T07:15:55;101931.88;;;8.48;100.00
72157;BME280;60035;52.122;5.406;2024-02-21T07:18:26;101931.00;;;8.49;100.00
72157;BME280;60035;52.122;5.406;2024-02-21T07:20:58;101927.59;;;8.47;100.00
72157;BME280;60035;52.122;5.406;2024-02-21T07:23:29;101928.44;;;8.46;100.00
72157;BME280;60035;52.122;5.406;2024-02-21T07:26:00;101925.91;;;8.46;100.00
72157;BME280;60035;52.122;5.406;2024-02-21T07:28:35;101920.78;;;8.48;100.00
72157;BME280;60035;52.122;5.406;2024-02-21T07:31:06;101919.94;;;8.49;100.00
72157;BME280;60035;52.122;5.406;2024-02-21T07:33:38;101909.72;;;8.49;100.00
72157;BME280;60035;52.122;5.406;2024-02-21T07:36:14;101905.50;;;8.49;100.00
72157;BME280;60035;52.122;5.406;2024-02-21T07:38:46;101902.06;;;8.47;100.00
72157;BME280;60035;52.122;5.406;2024-02-21T07:41:21;101900.38;;;8.48;100.00
72157;BME280;60035;52.122;5.406;2024-02-21T07:43:55;101885.91;;;8.50;100.00
72157;BME280;60035;52.122;5.406;2024-02-21T07:46:27;101879.91;;;8.56;100.00
72157;BME280;60035;52.122;5.406;2024-02-21T07:49:00;101875.69;;;8.56;100.00
72157;BME280;60035;52.122;5.406;2024-02-21T07:51:32;101873.97;;;8.57;100.00
72157;BME280;60035;52.122;5.406;2024-02-21T07:54:04;101863.75;;;8.58;100.00
72157;BME280;60035;52.122;5.406;2024-02-21T07:56:38;101851.81;;;8.60;100.00
72157;BME280;60035;52.122;5.406;2024-02-21T07:59:12;101862.03;;;8.62;100.00
72157;BME280;60035;52.122;5.406;2024-02-21T08:01:44;101850.09;;;8.62;100.00
72157;BME280;60035;52.122;5.406;2024-02-21T08:04:15;101856.06;;;8.63;100.00
72157;BME280;60035;52.122;5.406;2024-02-21T08:06:51;101862.88;;;8.65;100.00
72157;BME280;60035;52.122;5.406;2024-02-21T08:09:23;101861.13;;;8.67;100.00
72157;BME280;60035;52.122;5.406;2024-02-21T08:11:55;101856.91;;;8.68;100.00
72157;BME280;60035;52.122;5.406;2024-02-21T08:14:29;101843.28;;;8.71;100.00
72157;BME280;60035;52.122;5.406;2024-02-21T08:17:00;101841.53;;;8.73;100.00
72157;BME280;60035;52.122;5.406;2024-02-21T08:19:32;101847.47;;;8.76;100.00
72157;BME280;60035;52.122;5.406;2024-02-21T08:22:03;101840.66;;;8.78;100.00
72157;BME280;60035;52.122;5.406;2024-02-21T08:24:35;101838.94;;;8.82;100.00
72157;BME280;60035;52.122;5.406;2024-02-21T08:27:06;101833.81;;;8.83;100.00
72157;BME280;60035;52.122;5.406;2024-02-21T08:29:40;101832.09;;;8.86;100.00
72157;BME280;60035;52.122;5.406;2024-02-21T08:32:12;101834.63;;;8.92;100.00
72157;BME280;60035;52.122;5.406;2024-02-21T08:34:43;101813.31;;;8.93;100.00
72157;BME280;60035;52.122;5.406;2024-02-21T08:37:14;101811.63;;;8.93;100.00
72157;BME280;60035;52.122;5.406;2024-02-21T08:39:48;101824.38;;;8.96;100.00
72157;BME280;60035;52.122;5.406;2024-02-21T08:42:20;101812.44;;;8.98;100.00
72157;BME280;60035;52.122;5.406;2024-02-21T08:44:54;101809.88;;;9.00;100.00
72157;BME280;60035;52.122;5.406;2024-02-21T08:47:25;101797.91;;;9.02;100.00
72157;BME280;60035;52.122;5.406;2024-02-21T08:49:57;101791.13;;;9.03;100.00
72157;BME280;60035;52.122;5.406;2024-02-21T08:52:44;101791.94;;;9.05;100.00
72157;BME280;60035;52.122;5.406;2024-02-21T08:55:16;101784.28;;;9.06;100.00
72157;BME280;60035;52.122;5.406;2024-02-21T08:57:47;101780.84;;;9.10;100.00
72157;BME280;60035;52.122;5.406;2024-02-21T09:00:21;101785.09;;;9.13;100.00
72157;BME280;60035;52.122;5.406;2024-02-21T09:02:55;101786.75;;;9.14;100.00
72157;BME280;60035;52.122;5.406;2024-02-21T09:05:27;101783.34;;;9.15;100.00
72157;BME280;60035;52.122;5.406;2024-02-21T09:07:58;101779.91;;;9.19;100.00
72157;BME280;60035;52.122;5.406;2024-02-21T09:10:30;101779.91;;;9.22;100.00
72157;BME280;60035;52.122;5.406;2024-02-21T09:13:01;101779.00;;;9.23;100.00
72157;BME280;60035;52.122;5.406;2024-02-21T09:15:35;101775.63;;;9.23;100.00
72157;BME280;60035;52.122;5.406;2024-02-21T09:18:07;101773.03;;;9.24;100.00
72157;BME280;60035;52.122;5.406;2024-02-21T09:20:38;101767.03;;;9.30;100.00
72157;BME280;60035;52.122;5.406;2024-02-21T09:23:10;101766.16;;;9.32;100.00
72157;BME280;60035;52.122;5.406;2024-02-21T09:25:41;101754.19;;;9.36;100.00
72157;BME280;60035;52.122;5.406;2024-02-21T09:28:13;101753.38;;;9.32;100.00
72157;BME280;60035;52.122;5.406;2024-02-21T09:30:47;101755.09;;;9.32;100.00
72157;BME280;60035;52.122;5.406;2024-02-21T09:33:19;101750.00;;;9.30;100.00
72157;BME280;60035;52.122;5.406;2024-02-21T09:35:59;101754.25;;;9.33;100.00
72157;BME280;60035;52.122;5.406;2024-02-21T09:38:33;101731.16;;;9.38;100.00
72157;BME280;60035;52.122;5.406;2024-02-21T09:41:14;101732.84;;;9.43;100.00
72157;BME280;60035;52.122;5.406;2024-02-21T09:43:52;101721.72;;;9.47;100.00
72157;BME280;60035;52.122;5.406;2024-02-21T09:46:38;101711.50;;;9.47;100.00
72157;BME280;60035;52.122;5.406;2024-02-21T09:49:25;101709.75;;;9.49;100.00
72157;BME280;60035;52.122;5.406;2024-02-21T09:52:03;101699.56;;;9.46;100.00
72157;BME280;60035;52.122;5.406;2024-02-21T09:54:35;101690.94;;;9.54;100.00
72157;BME280;60035;52.122;5.406;2024-02-21T09:57:07;101688.41;;;9.52;100.00
72157;BME280;60035;52.122;5.406;2024-02-21T09:59:39;101686.69;;;9.54;100.00
72157;BME280;60035;52.122;5.406;2024-02-21T10:02:14;101679.81;;;9.58;100.00
72157;BME280;60035;52.122;5.406;2024-02-21T10:04:45;101665.28;;;9.61;100.00
72157;BME280;60035;52.122;5.406;2024-02-21T10:07:18;101661.84;;;9.65;100.00
72157;BME280;60035;52.122;5.406;2024-02-21T10:10:00;101649.91;;;9.66;100.00
72157;BME280;60035;52.122;5.406;2024-02-21T10:12:32;101650.69;;;9.70;100.00
72157;BME280;60035;52.122;5.406;2024-02-21T10:15:04;101648.13;;;9.73;100.00
72157;BME280;60035;52.122;5.406;2024-02-21T10:17:38;101638.66;;;9.76;100.00
72157;BME280;60035;52.122;5.406;2024-02-21T10:20:10;101631.00;;;9.76;100.00
72157;BME280;60035;52.122;5.406;2024-02-21T10:22:43;101631.88;;;9.77;100.00
72157;BME280;60035;52.122;5.406;2024-02-21T10:25:15;101629.28;;;9.78;100.00
72157;BME280;60035;52.122;5.406;2024-02-21T10:27:48;101622.31;;;9.90;100.00
72157;BME280;60035;52.122;5.406;2024-02-21T10:30:20;101615.38;;;9.98;100.00
72157;BME280;60035;52.122;5.406;2024-02-21T10:32:54;101605.13;;;9.98;100.00
72157;BME280;60035;52.122;5.406;2024-02-21T10:35:26;101592.25;;;10.04;100.00
72157;BME280;60035;52.122;5.406;2024-02-21T10:37:59;101594.75;;;10.07;100.00
72157;BME280;60035;52.122;5.406;2024-02-21T10:40:31;101593.78;;;10.14;100.00
72157;BME280;60035;52.122;5.406;2024-02-21T10:43:03;101591.16;;;10.19;100.00
72157;BME280;60035;52.122;5.406;2024-02-21T10:45:35;101576.66;;;10.20;100.00
72157;BME280;60035;52.122;5.406;2024-02-21T10:48:12;101581.03;;;10.11;100.00
72157;BME280;60035;52.122;5.406;2024-02-21T10:50:56;101562.34;;;10.08;100.00
72157;BME280;60035;52.122;5.406;2024-02-21T10:53:41;101555.53;;;10.05;100.00
72157;BME280;60035;52.122;5.406;2024-02-21T10:56:22;101547.81;;;10.10;100.00
72157;BME280;60035;52.122;5.406;2024-02-21T10:58:54;101516.25;;;10.11;100.00
72157;BME280;60035;52.122;5.406;2024-02-21T11:01:26;101511.88;;;10.17;100.00
72157;BME280;60035;52.122;5.406;2024-02-21T11:04:04;101493.09;;;10.17;100.00
72157;BME280;60035;52.122;5.406;2024-02-21T11:06:38;101489.63;;;10.20;100.00
72157;BME280;60035;52.122;5.406;2024-02-21T11:09:10;101486.19;;;10.22;100.00
72157;BME280;60035;52.122;5.406;2024-02-21T11:11:43;101484.41;;;10.26;100.00
72157;BME280;60035;52.122;5.406;2024-02-21T11:14:18;101551.03;;;10.23;100.00
72157;BME280;60035;52.122;5.406;2024-02-21T11:16:50;101555.41;;;10.14;100.00
72157;BME280;60035;52.122;5.406;2024-02-21T11:19:26;101556.44;;;10.04;100.00
72157;BME280;60035;52.122;5.406;2024-02-21T11:21:59;101548.84;;;9.98;100.00
72157;BME280;60035;52.122;5.406;2024-02-21T11:24:33;101537.78;;;9.96;100.00
72157;BME280;60035;52.122;5.406;2024-02-21T11:27:09;101541.31;;;9.89;100.00
72157;BME280;60035;52.122;5.406;2024-02-21T11:29:42;101538.81;;;9.84;100.00
72157;BME280;60035;52.122;5.406;2024-02-21T11:32:15;101536.38;;;9.76;100.00
72157;BME280;60035;52.122;5.406;2024-02-21T11:34:57;101524.50;;;9.72;100.00
72157;BME280;60035;52.122;5.406;2024-02-21T11:37:32;101511.72;;;9.72;100.00
72157;BME280;60035;52.122;5.406;2024-02-21T11:40:06;101511.00;;;9.64;100.00
72157;BME280;60035;52.122;5.406;2024-02-21T11:42:40;101508.47;;;9.62;100.00
72157;BME280;60035;52.122;5.406;2024-02-21T11:45:11;101485.50;;;9.59;100.00
72157;BME280;60035;52.122;5.406;2024-02-21T11:47:48;101472.72;;;9.59;100.00
72157;BME280;60035;52.122;5.406;2024-02-21T11:50:22;101476.09;;;9.60;100.00
72157;BME280;60035;52.122;5.406;2024-02-21T11:52:54;101459.91;;;9.61;100.00
72157;BME280;60035;52.122;5.406;2024-02-21T11:55:26;101465.84;;;9.61;100.00
72157;BME280;60035;52.122;5.406;2024-02-21T11:57:57;101459.03;;;9.62;100.00
72157;BME280;60035;52.122;5.406;2024-02-21T12:00:29;101413.72;;;9.70;100.00
72157;BME280;60035;52.122;5.406;2024-02-21T12:03:02;101411.00;;;9.81;100.00
72157;BME280;60035;52.122;5.406;2024-02-21T12:05:37;101403.09;;;9.93;100.00
72157;BME280;60035;52.122;5.406;2024-02-21T12:08:09;101388.41;;;10.05;100.00
72157;BME280;60035;52.122;5.406;2024-02-21T12:10:42;101373.63;;;10.19;100.00
72157;BME280;60035;52.122;5.406;2024-02-21T12:13:22;101361.41;;;10.33;100.00
72157;BME280;60035;52.122;5.406;2024-02-21T12:15:54;101345.91;;;10.43;100.00
72157;BME280;60035;52.122;5.406;2024-02-21T12:18:26;101358.63;;;10.46;100.00
72157;BME280;60035;52.122;5.406;2024-02-21T12:21:01;101350.78;;;10.54;100.00
72157;BME280;60035;52.122;5.406;2024-02-21T12:23:32;101348.97;;;10.59;100.00
72157;BME280;60035;52.122;5.406;2024-02-21T12:26:03;101346.22;;;10.68;100.00
72157;BME280;60035;52.122;5.406;2024-02-21T12:28:36;101335.09;;;10.69;100.00
72157;BME280;60035;52.122;5.406;2024-02-21T12:31:07;101324.00;;;10.69;100.00
72157;BME280;60035;52.122;5.406;2024-02-21T12:33:39;101312.91;;;10.68;100.00
72157;BME280;60035;52.122;5.406;2024-02-21T12:36:13;101303.53;;;10.67;100.00
72157;BME280;60035;52.122;5.406;2024-02-21T12:38:44;101295.91;;;10.65;100.00
72157;BME280;60035;52.122;5.406;2024-02-21T12:41:16;101288.28;;;10.62;100.00
72157;BME280;60035;52.122;5.406;2024-02-21T12:43:47;101280.59;;;10.62;100.00
72157;BME280;60035;52.122;5.406;2024-02-21T12:46:19;101278.03;;;10.62;100.00
72157;BME280;60035;52.122;5.406;2024-02-21T12:48:50;101261.00;;;10.61;100.00
72157;BME280;60035;52.122;5.406;2024-02-21T12:51:25;101259.13;;;10.68;100.00
72157;BME280;60035;52.122;5.406;2024-02-21T12:53:56;101250.53;;;10.71;100.00
72157;BME280;60035;52.122;5.406;2024-02-21T12:56:27;101240.25;;;10.72;100.00
72157;BME280;60035;52.122;5.406;2024-02-21T12:58:59;101229.16;;;10.72;100.00
72157;BME280;60035;52.122;5.406;2024-02-21T13:01:30;101224.78;;;10.75;100.00
72157;BME280;60035;52.122;5.406;2024-02-21T13:04:02;101235.72;;;10.82;100.00
72157;BME280;60035;52.122;5.406;2024-02-21T13:06:36;101215.28;;;10.80;100.00
72157;BME280;60035;52.122;5.406;2024-02-21T13:09:07;101194.75;;;10.83;100.00
72157;BME280;60035;52.122;5.406;2024-02-21T13:11:42;101192.09;;;10.87;100.00
72157;BME280;60035;52.122;5.406;2024-02-21T13:14:14;101186.97;;;10.87;100.00
72157;BME280;60035;52.122;5.406;2024-02-21T13:16:46;101183.53;;;10.88;100.00